Terminal Aerodrome Forecast
Issued by NWS Jackson, KY

Home | Current Version | Previous Version | Text Only | Print | Product List | Glossary On
Versions: 1 2 3 4 5 6 7 8 9 10 11 12 13 14 15
000
FTUS43 KJKL 042339
TAFJKL
TAF
KJKL 042339Z 0500/0524 VRB06KT 3SM TSRA SCT010 BKN025CB BKN050
     FM050030 VRB03KT P6SM SCT060
     FM050800 00000KT 1SM BR SCT060
     FM051300 18004KT P6SM SCT040=

USA.gov is the U.S. government's official web portal to all federal, state and local government web resources and services.